Agency Village, SD

1:56 PM CDT on September 20, 2014 (GMT -0500)
Coteau Des prairie | Change Station
CLOSE
Current Station
Personal Weather Station
Location: Veblen, SD
Elevation: 1883 ft
Nearby Weather Stations
Active Advisory: Severe Thunderstorm Watch

Elev 1883 ft 45.77 °N, 97.37 °W | Updated 4 seconds ago

Partly Cloudy
Partly Cloudy
73.2 °F
Feels Like 77 °F
N
10.7
Wind Variable Wind from SSW
Gusts 14.0 mph

Today
High -- | Low -- °F
--% Chance of Precip.
Yesterday
High -- | Low -- °F
Precip. -- in
7:12 AM 7:29 PM
Waning Crescent, 11% visible
Pressure 29.79 in
Visibility 10.0 miles
Clouds Clear
Heat Index 77 °F
Dew Point 55 °F
Humidity 54%
Rainfall 0.00 in
Snow Depth 0 in
UV 6 out of 12
Pollen 3.70 out of 12
Air Quality Not available.
Flu Activity Not available.
METAR KETH 201836Z AUTO 23011KT 10SM CLR 22/12 A2979 RMK AO2 LTG DSNT NW

More Conditions Fewer Conditions

Pressure 29.79 in
Visibility 10.0 miles
Clouds Clear
Heat Index 77 °F
Dew Point 55 °F
Humidity 54%
Rainfall 0.00 in
Snow Depth 0 in
UV 6 out of 12
Pollen 3.70 out of 12
Air Quality Not available.
Flu Activity Not available.
METAR KETH 201836Z AUTO 23011KT 10SM CLR 22/12 A2979 RMK AO2 LTG DSNT NW

More Conditions Fewer Conditions

10-Day Weather Forecast

Almanac

Astronomy

Sep. 20, 2014 Rise Set
Actual Time 7:12 AM CDT 7:29 PM CDT
Civil Twilight 6:43 AM CDT 7:59 PM CDT
Nautical Twilight 6:08 AM CDT 8:34 PM CDT
Astronomical Twilight 5:31 AM CDT 9:10 PM CDT
Moon 3:44 AM CDT 5:40 PM CDT
Length of Visible Light 13h 16m
Length of Day
12h 16m
Tomorrow will be 3m 11s shorter.
Waning Crescent, 11% of the Moon is Illuminated
Today
Waning Crescent
Sep 24
New
Oct 1
First Quarter
Oct 8
Full
Oct 15
Last Quarter

Today's Extremes

State Highs State Lows

Community

WunderPhotos

Upload Photos

1,754,923 photos uploaded!

WunderBlogs® & News

Nearby

Snow Depth

Station Depth Elevation
Blind Park 0 in 6890 ft

Earthquake Activity

City Distance Mag. Time & Date
No recent earthquake activity has been reported nearby.
Minimum magnitude displayed is 2.5.

Coastal Water Temperatures

Place Temperature
No Stations Reporting

Nearby Weather Stations